createdAt,value
2022-11-15T00:00:47.091Z,7.67
2022-11-15T00:03:34.127Z,7.60
2022-11-15T00:06:21.874Z,8.10
2022-11-15T00:09:08.824Z,8.17
2022-11-15T00:11:55.434Z,8.07
2022-11-15T00:14:43.538Z,7.37
2022-11-15T00:17:30.729Z,8.37
2022-11-15T00:20:18.120Z,7.87
2022-11-15T00:23:05.877Z,8.20
2022-11-15T00:25:58.737Z,8.70
2022-11-15T00:28:45.535Z,7.43
2022-11-15T00:31:33.927Z,8.00
2022-11-15T00:34:20.461Z,7.77
2022-11-15T00:37:08.615Z,8.23
2022-11-15T00:39:55.431Z,8.10
2022-11-15T00:42:42.243Z,8.70
2022-11-15T00:45:29.174Z,8.10
2022-11-15T00:48:17.573Z,7.90
2022-11-15T00:51:04.086Z,6.80
2022-11-15T00:53:50.644Z,7.10
2022-11-15T00:56:38.596Z,7.33
2022-11-15T00:59:25.243Z,7.53
2022-11-15T01:02:12.061Z,7.47
2022-11-15T01:05:00.657Z,7.53
2022-11-15T01:07:47.370Z,9.17
2022-11-15T01:10:35.693Z,8.50
2022-11-15T01:13:22.267Z,9.23
2022-11-15T01:16:10.493Z,9.20
2022-11-15T01:18:57.499Z,9.03
2022-11-15T01:21:45.673Z,8.43
2022-11-15T01:24:32.525Z,9.60
2022-11-15T01:27:20.298Z,9.03
2022-11-15T01:30:09.288Z,9.80
2022-11-15T01:32:55.867Z,10.13
2022-11-15T01:35:42.712Z,9.83
2022-11-15T01:38:30.902Z,10.30
2022-11-15T01:41:19.401Z,8.93
2022-11-15T01:44:42.544Z,9.37
2022-11-15T01:47:32.731Z,8.87
2022-11-15T01:50:22.477Z,8.13
2022-11-15T01:53:09.364Z,8.10
2022-11-15T01:55:57.900Z,8.13
2022-11-15T01:58:45.419Z,7.73
2022-11-15T02:01:33.538Z,7.23
2022-11-15T02:04:23.483Z,7.27
2022-11-15T02:07:12.623Z,8.50
2022-11-15T02:10:00.865Z,7.70
2022-11-15T02:12:49.471Z,7.87
2022-11-15T02:15:40.409Z,7.20
2022-11-15T02:18:30.359Z,7.20
2022-11-15T02:21:23.445Z,8.13
2022-11-15T02:24:29.690Z,7.77
2022-11-15T02:27:44.705Z,7.10
2022-11-15T02:30:40.386Z,7.00
2022-11-15T02:33:34.259Z,7.53
2022-11-15T02:36:27.502Z,6.77
2022-11-15T02:39:21.305Z,6.87
2022-11-15T02:42:31.941Z,7.63
2022-11-15T02:45:21.641Z,6.83
2022-11-15T02:48:11.525Z,6.73
2022-11-15T02:50:58.910Z,6.73
2022-11-15T02:53:45.411Z,6.50
2022-11-15T02:56:32.440Z,6.83
2022-11-15T02:59:49.139Z,7.17
2022-11-15T03:02:52.190Z,5.90
2022-11-15T03:05:46.891Z,5.77
2022-11-15T03:08:35.342Z,6.13
2022-11-15T03:11:24.030Z,6.57
2022-11-15T03:14:19.894Z,6.17
2022-11-15T03:17:14.951Z,6.17
2022-11-15T03:20:04.025Z,6.70
2022-11-15T03:22:52.873Z,6.73
2022-11-15T03:25:43.936Z,6.27
2022-11-15T03:28:36.564Z,6.30
2022-11-15T03:31:45.670Z,6.77
2022-11-15T03:34:39.442Z,6.97
2022-11-15T03:37:31.803Z,6.93
2022-11-15T03:40:27.777Z,6.77
2022-11-15T03:43:18.528Z,7.27
2022-11-15T03:46:09.227Z,6.30
2022-11-15T03:49:01.089Z,7.03
2022-11-15T03:51:47.783Z,7.50
2022-11-15T03:54:35.025Z,7.13
2022-11-15T03:57:23.353Z,6.93
2022-11-15T04:00:12.009Z,6.47
2022-11-15T04:02:58.499Z,5.90
2022-11-15T04:05:45.106Z,7.17
2022-11-15T04:08:32.189Z,6.60
2022-11-15T04:11:18.749Z,6.83
2022-11-15T04:14:07.072Z,6.53
2022-11-15T04:16:54.218Z,6.53
2022-11-15T04:19:58.373Z,5.83
2022-11-15T04:23:02.440Z,6.50
2022-11-15T04:25:51.703Z,6.30
2022-11-15T04:28:59.446Z,6.60
2022-11-15T04:31:47.798Z,6.50
2022-11-15T04:34:35.302Z,6.50
2022-11-15T04:37:22.130Z,6.83
2022-11-15T04:40:10.341Z,6.80
2022-11-15T04:43:03.372Z,7.20
2022-11-15T04:45:50.684Z,7.17
2022-11-15T04:48:38.749Z,6.27
2022-11-15T04:51:25.311Z,6.13
2022-11-15T04:54:12.107Z,6.53
2022-11-15T04:56:58.915Z,6.50
2022-11-15T04:59:45.805Z,6.17
2022-11-15T05:02:46.867Z,6.37
2022-11-15T05:05:34.919Z,6.10
2022-11-15T05:08:21.633Z,6.53
2022-11-15T05:11:08.281Z,5.80
2022-11-15T05:13:55.358Z,5.73
2022-11-15T05:16:42.542Z,5.23
2022-11-15T05:19:29.373Z,4.87
2022-11-15T05:22:17.460Z,5.53
2022-11-15T05:25:04.721Z,5.20
2022-11-15T05:27:51.506Z,4.40
2022-11-15T05:30:38.299Z,4.33
2022-11-15T05:33:26.002Z,3.57
2022-11-15T05:36:18.109Z,4.13
2022-11-15T05:39:09.204Z,3.80
2022-11-15T05:41:57.948Z,4.13
2022-11-15T05:44:47.924Z,4.00
2022-11-15T05:47:36.441Z,4.43
2022-11-15T05:50:23.284Z,4.57
2022-11-15T05:53:15.534Z,4.40
2022-11-15T05:56:04.729Z,4.43
2022-11-15T05:58:55.503Z,4.13
2022-11-15T06:01:45.636Z,4.17
2022-11-15T06:04:32.096Z,4.43
2022-11-15T06:07:18.685Z,4.90
2022-11-15T06:10:06.236Z,4.50
2022-11-15T06:13:00.359Z,4.57
2022-11-15T06:15:46.924Z,5.20
2022-11-15T06:18:34.827Z,4.90
2022-11-15T06:21:22.103Z,4.73
2022-11-15T06:24:10.149Z,4.83
2022-11-15T06:26:56.633Z,5.07
2022-11-15T06:29:44.851Z,5.00
2022-11-15T06:32:32.357Z,4.03
2022-11-15T06:35:19.268Z,4.00
2022-11-15T06:38:07.616Z,4.37
2022-11-15T06:40:54.175Z,4.37
2022-11-15T06:43:40.822Z,3.77
2022-11-15T06:46:28.730Z,3.90
2022-11-15T06:49:15.370Z,4.03
2022-11-15T06:52:02.288Z,3.80
2022-11-15T06:54:49.096Z,3.80
2022-11-15T06:57:35.853Z,3.90
2022-11-15T07:00:24.065Z,3.80
2022-11-15T07:03:13.756Z,3.27
2022-11-15T07:06:06.741Z,3.83
2022-11-15T07:08:53.781Z,3.77
2022-11-15T07:11:40.635Z,4.23
2022-11-15T07:14:27.058Z,3.30
2022-11-15T07:17:13.675Z,3.77
2022-11-15T07:20:01.565Z,3.60
2022-11-15T07:22:48.058Z,3.50
2022-11-15T07:25:34.596Z,3.30
2022-11-15T07:28:21.483Z,3.67
2022-11-15T07:31:09.690Z,3.23
2022-11-15T07:33:56.486Z,3.30
2022-11-15T07:36:44.802Z,2.70
2022-11-15T07:39:31.656Z,2.83
2022-11-15T07:42:35.564Z,2.67
2022-11-15T07:45:22.672Z,2.50
2022-11-15T07:48:09.409Z,2.40
2022-11-15T07:50:56.035Z,2.40
2022-11-15T07:53:44.296Z,2.10
2022-11-15T07:56:30.645Z,2.27
2022-11-15T07:59:17.519Z,2.50
2022-11-15T08:02:04.788Z,2.40
2022-11-15T08:04:51.583Z,2.23
2022-11-15T08:07:39.105Z,2.20
2022-11-15T08:10:28.665Z,2.40
2022-11-15T08:13:16.006Z,2.30
2022-11-15T08:16:06.306Z,2.27
2022-11-15T08:18:53.248Z,2.13
2022-11-15T08:21:39.826Z,2.23
2022-11-15T08:24:26.262Z,1.83
2022-11-15T08:27:18.992Z,1.90
2022-11-15T08:30:10.619Z,1.90
2022-11-15T08:32:59.174Z,1.90
2022-11-15T08:35:46.454Z,2.00
2022-11-15T08:38:33.806Z,1.50
2022-11-15T08:41:27.295Z,1.67
2022-11-15T08:44:15.564Z,1.60
2022-11-15T08:47:02.181Z,1.40
2022-11-15T08:49:48.909Z,1.47
2022-11-15T08:52:35.652Z,1.50
2022-11-15T08:55:24.836Z,1.30
2022-11-15T08:58:11.796Z,1.67
2022-11-15T09:01:00.381Z,1.27
2022-11-15T09:03:47.140Z,1.70
2022-11-15T09:06:34.391Z,1.57
2022-11-15T09:09:21.110Z,1.60
2022-11-15T09:12:08.480Z,1.47
2022-11-15T09:14:55.725Z,1.97
2022-11-15T09:17:44.379Z,1.10
2022-11-15T09:20:31.502Z,1.10
2022-11-15T09:23:18.151Z,0.93
2022-11-15T09:26:06.876Z,1.43
2022-11-15T09:28:53.693Z,1.30
2022-11-15T09:31:40.181Z,1.10
2022-11-15T09:34:28.628Z,1.00
2022-11-15T09:37:15.701Z,1.20
2022-11-15T09:40:04.196Z,1.23
2022-11-15T09:43:04.719Z,1.07
2022-11-15T09:46:01.952Z,1.10
2022-11-15T09:48:58.055Z,1.00
2022-11-15T09:51:32.896Z,1.20
2022-11-15T09:57:10.517Z,1.30
2022-11-15T09:59:54.864Z,1.17
2022-11-15T10:02:38.785Z,1.03
2022-11-15T10:05:10.789Z,0.90
2022-11-15T10:07:49.201Z,1.07
2022-11-15T10:10:19.839Z,1.10
2022-11-15T10:12:50.983Z,2.17
2022-11-15T10:15:23.556Z,1.13
2022-11-15T10:18:07.107Z,1.23
2022-11-15T10:20:43.631Z,1.33
2022-11-15T10:23:16.607Z,0.90
2022-11-15T10:25:45.716Z,1.03
2022-11-15T10:28:19.050Z,1.20
2022-11-15T10:30:49.276Z,1.20
2022-11-15T10:33:26.489Z,1.30
2022-11-15T10:36:27.975Z,1.27
2022-11-15T10:39:00.687Z,0.90
2022-11-15T10:41:41.271Z,1.07
2022-11-15T10:44:14.992Z,0.93
2022-11-15T10:46:47.267Z,1.27
2022-11-15T10:49:18.955Z,1.13
2022-11-15T10:51:49.842Z,0.90
2022-11-15T10:54:27.726Z,1.03
2022-11-15T10:56:57.423Z,1.00
2022-11-15T10:59:29.061Z,0.90
2022-11-15T11:01:57.439Z,1.13
2022-11-15T11:04:25.963Z,0.90
2022-11-15T11:06:56.366Z,0.90
2022-11-15T11:09:33.187Z,0.93
2022-11-15T11:12:02.626Z,0.80
2022-11-15T11:14:32.956Z,1.30
2022-11-15T11:17:06.411Z,1.00
2022-11-15T11:19:55.276Z,0.90
2022-11-15T11:22:27.685Z,0.97
2022-11-15T11:25:06.833Z,0.90
2022-11-15T11:27:42.715Z,1.00
2022-11-15T11:30:14.207Z,1.10
2022-11-15T11:33:02.670Z,0.80
2022-11-15T11:35:33.199Z,1.50
2022-11-15T11:38:14.658Z,1.10
2022-11-15T11:40:52.458Z,1.23
2022-11-15T11:43:35.396Z,0.90
2022-11-15T11:46:20.628Z,1.20
2022-11-15T11:48:52.693Z,0.90
2022-11-15T11:51:23.293Z,1.10
2022-11-15T11:53:56.601Z,1.40
2022-11-15T11:56:30.271Z,1.67
2022-11-15T11:59:05.085Z,1.60
2022-11-15T12:01:36.968Z,1.70
2022-11-15T12:04:12.050Z,1.30
2022-11-15T12:06:45.194Z,2.17
2022-11-15T12:09:16.942Z,1.10
2022-11-15T12:11:53.871Z,1.70
2022-11-15T12:14:31.242Z,2.07
2022-11-15T12:17:00.303Z,2.30
2022-11-15T12:19:30.267Z,1.70
2022-11-15T12:22:03.845Z,1.53
2022-11-15T12:24:38.065Z,4.20
2022-11-15T12:27:11.244Z,2.47
2022-11-15T12:29:43.596Z,1.60
2022-11-15T12:32:21.869Z,2.43
2022-11-15T12:34:51.948Z,2.70
2022-11-15T12:37:57.430Z,2.13
2022-11-15T12:40:35.305Z,1.77
2022-11-15T12:43:30.345Z,2.33
2022-11-15T12:46:05.064Z,2.00
2022-11-15T12:49:03.784Z,1.90
2022-11-15T12:52:06.918Z,2.10
2022-11-15T12:54:57.887Z,2.17
2022-11-15T12:57:35.903Z,2.30
2022-11-15T13:00:39.079Z,3.10
2022-11-15T13:03:35.946Z,2.70
2022-11-15T13:06:11.164Z,2.50
2022-11-15T13:08:48.917Z,2.20
2022-11-15T13:11:53.126Z,2.23
2022-11-15T13:14:50.062Z,2.37
2022-11-15T13:17:35.800Z,2.27
2022-11-15T13:20:24.165Z,2.20
2022-11-15T13:22:55.779Z,2.50
2022-11-15T13:25:35.714Z,2.30
2022-11-15T13:28:08.046Z,2.90
2022-11-15T13:30:36.333Z,2.80
2022-11-15T13:33:10.941Z,2.43
2022-11-15T13:35:41.601Z,2.10
2022-11-15T13:38:20.807Z,2.40
2022-11-15T13:40:48.869Z,2.40
2022-11-15T13:43:36.598Z,2.20
2022-11-15T13:46:23.440Z,4.23
2022-11-15T13:48:57.248Z,2.63
2022-11-15T13:51:37.767Z,2.63
2022-11-15T13:54:11.090Z,2.17
2022-11-15T13:56:39.810Z,2.63
2022-11-15T13:59:12.302Z,2.20
2022-11-15T14:01:44.050Z,4.47
2022-11-15T14:04:16.375Z,2.80
2022-11-15T14:06:51.865Z,2.60
2022-11-15T14:09:37.952Z,2.30
2022-11-15T14:12:28.611Z,2.73
2022-11-15T14:14:57.459Z,2.67
2022-11-15T14:17:36.980Z,2.40
2022-11-15T14:20:22.445Z,2.20
2022-11-15T14:22:55.133Z,2.13
2022-11-15T14:25:23.926Z,2.37
2022-11-15T14:28:17.429Z,2.10
2022-11-15T14:30:51.011Z,2.70
2022-11-15T14:33:25.634Z,2.40
2022-11-15T14:35:56.266Z,3.20
2022-11-15T14:38:26.274Z,3.33
2022-11-15T14:40:54.975Z,2.07
2022-11-15T14:43:23.136Z,2.50
2022-11-15T14:45:51.277Z,1.77
2022-11-15T14:48:19.486Z,1.63
2022-11-15T14:50:48.215Z,2.00
2022-11-15T14:53:20.838Z,1.97
2022-11-15T14:55:49.104Z,1.60
2022-11-15T14:58:17.328Z,2.23
2022-11-15T15:00:45.759Z,1.73
2022-11-15T15:03:14.338Z,2.23
2022-11-15T15:05:43.905Z,2.00
2022-11-15T15:08:12.914Z,2.03
2022-11-15T15:10:44.401Z,1.80
2022-11-15T15:13:19.333Z,1.90
2022-11-15T15:15:48.300Z,1.80
2022-11-15T15:18:16.424Z,1.70
2022-11-15T15:20:46.548Z,2.13
2022-11-15T15:23:18.996Z,2.20
2022-11-15T15:25:49.929Z,2.00
2022-11-15T15:28:18.176Z,1.93
2022-11-15T15:30:46.258Z,1.90
2022-11-15T15:33:14.316Z,2.20
2022-11-15T15:35:42.415Z,2.07
2022-11-15T15:38:13.335Z,2.03
2022-11-15T15:40:41.613Z,2.00
2022-11-15T15:43:11.021Z,2.00
2022-11-15T15:45:40.342Z,1.83
2022-11-15T15:48:12.730Z,2.00
2022-11-15T15:50:40.837Z,2.00
2022-11-15T15:53:09.148Z,1.83
2022-11-15T15:55:37.217Z,1.77
2022-11-15T15:58:05.823Z,1.90
2022-11-15T16:00:35.328Z,2.23
2022-11-15T16:03:03.542Z,1.80
2022-11-15T16:05:31.904Z,2.00
2022-11-15T16:08:02.328Z,1.80
2022-11-15T16:10:32.808Z,1.70
2022-11-15T16:13:00.980Z,2.10
2022-11-15T16:15:32.998Z,2.00
2022-11-15T16:18:06.393Z,1.87
2022-11-15T16:20:38.323Z,2.07
2022-11-15T16:23:09.960Z,2.00
2022-11-15T16:25:42.643Z,2.10
2022-11-15T16:28:26.793Z,1.90
2022-11-15T16:31:02.893Z,2.03
2022-11-15T16:33:34.058Z,2.10
2022-11-15T16:36:03.165Z,2.03
2022-11-15T16:38:32.433Z,2.40
2022-11-15T16:41:01.290Z,2.03
2022-11-15T16:43:34.408Z,2.00
2022-11-15T16:46:13.468Z,2.30
2022-11-15T16:48:44.089Z,2.30
2022-11-15T16:51:19.521Z,2.23
2022-11-15T16:53:49.043Z,2.63
2022-11-15T16:56:24.471Z,2.00
2022-11-15T16:58:55.114Z,2.07
2022-11-15T17:01:26.328Z,2.30
2022-11-15T17:03:57.065Z,2.30
2022-11-15T17:06:27.085Z,2.40
2022-11-15T17:08:56.801Z,2.80
2022-11-15T17:11:24.891Z,2.33
2022-11-15T17:13:53.202Z,2.50
2022-11-15T17:16:22.646Z,2.90
2022-11-15T17:18:53.131Z,2.70
2022-11-15T17:21:24.071Z,2.50
2022-11-15T17:23:53.824Z,2.93
2022-11-15T17:26:30.252Z,2.60
2022-11-15T17:29:01.769Z,2.53
2022-11-15T17:31:33.987Z,2.60
2022-11-15T17:34:03.479Z,2.67
2022-11-15T17:36:34.203Z,2.57
2022-11-15T17:39:18.720Z,2.47
2022-11-15T17:41:47.656Z,2.50
2022-11-15T17:44:16.776Z,2.67
2022-11-15T17:46:45.685Z,2.63
2022-11-15T17:49:14.097Z,2.90
2022-11-15T17:51:48.722Z,2.67
2022-11-15T17:54:18.289Z,2.93
2022-11-15T17:56:46.680Z,3.60
2022-11-15T17:59:20.109Z,3.13
2022-11-15T18:01:50.652Z,3.30
2022-11-15T18:04:20.204Z,3.20
2022-11-15T18:06:51.086Z,3.23
2022-11-15T18:09:21.843Z,3.10
2022-11-15T18:11:51.977Z,3.10
2022-11-15T18:14:22.832Z,3.73
2022-11-15T18:16:50.921Z,2.90
2022-11-15T18:19:19.048Z,2.90
2022-11-15T18:22:01.792Z,3.27
2022-11-15T18:24:33.750Z,3.47
2022-11-15T18:27:07.009Z,3.40
2022-11-15T18:32:26.379Z,3.67
2022-11-15T18:34:54.729Z,3.77
2022-11-15T18:37:23.166Z,3.40
2022-11-15T18:39:54.279Z,3.37
2022-11-15T18:42:22.505Z,3.60
2022-11-15T18:44:50.772Z,4.00
2022-11-15T18:47:19.034Z,4.00
2022-11-15T18:49:47.267Z,3.83
2022-11-15T18:52:15.368Z,3.77
2022-11-15T18:54:43.643Z,3.40
2022-11-15T18:57:13.497Z,4.00
2022-11-15T18:59:41.669Z,4.17
2022-11-15T19:02:12.105Z,4.30
2022-11-15T19:04:40.325Z,3.70
2022-11-15T19:07:08.590Z,4.50
2022-11-15T19:09:36.726Z,3.97
2022-11-15T19:12:05.377Z,4.20
2022-11-15T19:14:34.903Z,4.83
2022-11-15T19:17:03.179Z,3.80
2022-11-15T19:19:31.458Z,4.60
2022-11-15T19:21:59.949Z,4.43
2022-11-15T19:24:29.953Z,4.20
2022-11-15T19:26:58.186Z,3.90
2022-11-15T19:29:26.550Z,4.17
2022-11-15T19:31:56.133Z,4.07
2022-11-15T19:34:24.552Z,3.87
2022-11-15T19:36:53.028Z,3.90
2022-11-15T19:39:21.341Z,4.13
2022-11-15T19:41:50.254Z,3.80
2022-11-15T19:44:18.988Z,3.80
2022-11-15T19:46:47.521Z,4.17
2022-11-15T19:49:17.123Z,3.93
2022-11-15T19:51:48.450Z,4.03
2022-11-15T19:54:17.609Z,3.90
2022-11-15T19:56:45.995Z,3.90
2022-11-15T19:59:14.486Z,3.80
2022-11-15T20:01:42.761Z,3.60
2022-11-15T20:04:11.296Z,3.70
2022-11-15T20:06:42.913Z,3.83
2022-11-15T20:09:13.492Z,3.70
2022-11-15T20:11:41.730Z,3.80
2022-11-15T20:14:11.772Z,3.80
2022-11-15T20:16:40.580Z,4.10
2022-11-15T20:19:09.652Z,3.57
2022-11-15T20:21:37.977Z,4.10
2022-11-15T20:24:08.646Z,3.40
2022-11-15T20:26:37.183Z,3.23
2022-11-15T20:29:05.597Z,3.70
2022-11-15T20:31:34.342Z,3.50
2022-11-15T20:34:02.561Z,3.63
2022-11-15T20:36:31.108Z,3.23
2022-11-15T20:39:00.329Z,3.50
2022-11-15T20:41:29.947Z,3.57
2022-11-15T20:43:58.302Z,3.70
2022-11-15T20:46:27.674Z,3.10
2022-11-15T20:48:56.590Z,3.30
2022-11-15T20:51:24.670Z,3.57
2022-11-15T20:53:52.923Z,3.50
2022-11-15T20:56:22.578Z,3.30
2022-11-15T20:58:53.337Z,3.67
2022-11-15T21:01:23.700Z,3.80
2022-11-15T21:03:53.067Z,3.67
2022-11-15T21:06:21.508Z,3.57
2022-11-15T21:09:07.407Z,3.90
2022-11-15T21:11:53.930Z,3.67
2022-11-15T21:14:27.231Z,3.57
2022-11-15T21:16:56.375Z,3.47
2022-11-15T21:19:29.139Z,3.90
2022-11-15T21:22:00.943Z,4.00
2022-11-15T21:24:29.136Z,4.07
2022-11-15T21:26:57.597Z,3.87
2022-11-15T21:29:28.525Z,4.17
2022-11-15T21:31:56.649Z,3.83
2022-11-15T21:34:24.802Z,3.80
2022-11-15T21:36:52.922Z,4.13
2022-11-15T21:39:21.128Z,3.90
2022-11-15T21:41:50.353Z,3.70
2022-11-15T21:44:19.010Z,3.93
2022-11-15T21:46:52.393Z,3.90
2022-11-15T21:49:22.421Z,3.80
2022-11-15T21:51:50.960Z,3.60
2022-11-15T21:54:19.633Z,4.03
2022-11-15T21:56:48.336Z,3.80
2022-11-15T21:59:16.860Z,3.77
2022-11-15T22:02:17.441Z,3.73
2022-11-15T22:04:47.531Z,3.60
2022-11-15T22:07:16.527Z,3.30
2022-11-15T22:09:45.296Z,4.20
2022-11-15T22:12:13.561Z,4.40
2022-11-15T22:14:41.932Z,4.17
2022-11-15T22:17:13.485Z,4.20
2022-11-15T22:19:52.322Z,4.10
2022-11-15T22:22:23.159Z,4.13
2022-11-15T22:24:53.710Z,3.87
2022-11-15T22:27:22.277Z,4.23
2022-11-15T22:29:50.848Z,4.53
2022-11-15T22:32:19.247Z,4.50
2022-11-15T22:34:49.882Z,4.47
2022-11-15T22:37:21.025Z,4.60
2022-11-15T22:39:51.548Z,4.50
2022-11-15T22:42:23.650Z,4.30
2022-11-15T22:44:52.756Z,4.90
2022-11-15T22:47:21.318Z,4.60
2022-11-15T22:49:49.888Z,4.30
2022-11-15T22:52:18.708Z,5.07
2022-11-15T22:54:47.053Z,4.83
2022-11-15T22:57:17.236Z,4.70
2022-11-15T22:59:46.024Z,5.43
2022-11-15T23:02:14.427Z,5.47
2022-11-15T23:04:42.940Z,5.50
2022-11-15T23:07:11.525Z,5.63
2022-11-15T23:09:39.958Z,5.80
2022-11-15T23:12:27.111Z,5.97
2022-11-15T23:14:57.137Z,6.10
2022-11-15T23:17:25.625Z,6.93
2022-11-15T23:19:53.962Z,6.23
2022-11-15T23:22:39.966Z,6.60
2022-11-15T23:25:09.089Z,7.07
2022-11-15T23:27:38.006Z,6.50
2022-11-15T23:30:34.560Z,7.20
2022-11-15T23:33:20.036Z,7.47
2022-11-15T23:35:55.070Z,6.67
2022-11-15T23:38:23.547Z,7.37
2022-11-15T23:40:52.682Z,7.80
2022-11-15T23:43:21.264Z,8.13
2022-11-15T23:45:50.882Z,8.50
2022-11-15T23:48:19.097Z,7.80
2022-11-15T23:50:51.550Z,8.70
2022-11-15T23:53:20.121Z,8.10
2022-11-15T23:55:55.904Z,7.87
2022-11-15T23:58:24.572Z,8.50
